Whitetop, Virginia
Current Conditions -  °F | °C
As of 10:15 PM on Thursday 27 Nov 2014 (Local Time) from KGEV Reporting Station
Light Snow Light Snow  
Wind Chill: -12°   Ceiling: 2100
Heat Index: -5°   Visibility: 10mi
Dew Point: -10°   Wind: 15mph
Humidity: 67%   Direction: 320°NW
Pressure: 30.17"   Gusts: 25mph
Location:  36.6°N, 81.63°W
Report Text: KGEV 280315Z AUTO 32013G22KT 10SM -SN OVC021 M05/M10 A3017 RMK AO2 T10471099
Loading
Personal Weather Stations






























Interactive Weather Map New forecast layout! Learn more

10-Day Weather Forecast

Advertisements
Track Severe Weather on mobile